Rushville, Nebraska
Current Conditions -  °F | °C
As of 6:52 PM on Thursday 20 Nov 2014 (Local Time) from KIEN Reporting Station
Clear Clear  
Wind Chill: 30°   Ceiling: Unl
Heat Index: 30°   Visibility: 10mi
Dew Point: 23°   Wind: 3mph
Humidity: 75%   Direction: 310°NW
Pressure: 29.93"   Gusts: NA
Location:  42.72°N, 102.46°W
Report Text: KIEN 210152Z AUTO 31003KT 10SM CLR M01/M05 A2993 RMK AO2 SLP186 T10111050
Loading
Personal Weather Stations






























Interactive Weather Map New forecast layout! Learn more

10-Day Weather Forecast

Advertisements
Track Severe Weather on mobile